Time;durP1;ratioP1;P1;durP2;ratioP2;P2;SDS_P1;SDS_P2;PMS_P1;PMS_P2;Temp;Humidity;BMP_temperature;BMP_pressure;BME280_temperature;BME280_humidity;BME280_pressure;Samples;Min_cycle;Max_cycle;Signal;HPM_P1;HPM_P2
2023/06/19 00:01:43;;;;;;;15.90;14.90;;;24.10;97.10;;;;;;4962399;28;20499;-83
2023/06/19 00:04:12;;;;;;;13.87;13.00;;;24.10;97.50;;;;;;4962621;28;20464;-83
2023/06/19 00:06:40;;;;;;;13.97;13.20;;;24.10;96.80;;;;;;4960810;28;20476;-83
2023/06/19 00:09:09;;;;;;;14.33;13.43;;;24.10;96.90;;;;;;4973748;28;20868;-82
2023/06/19 00:11:37;;;;;;;13.73;13.03;;;24.10;97.30;;;;;;4962035;28;21084;-84
2023/06/19 00:14:06;;;;;;;14.33;13.63;;;24.10;97.10;;;;;;4958036;28;20991;-84
2023/06/19 00:16:34;;;;;;;13.87;13.10;;;24.00;97.10;;;;;;4960406;28;20530;-82
2023/06/19 00:19:03;;;;;;;15.00;14.20;;;24.10;97.30;;;;;;4959802;28;20473;-83
2023/06/19 00:21:32;;;;;;;14.47;13.77;;;24.00;97.40;;;;;;4959857;28;20542;-82
2023/06/19 00:24:00;;;;;;;14.00;13.33;;;24.10;97.10;;;;;;4960755;28;20514;-82
2023/06/19 00:26:29;;;;;;;13.40;12.60;;;24.10;97.10;;;;;;4960028;28;20890;-83
2023/06/19 00:28:57;;;;;;;14.23;13.30;;;24.00;97.30;;;;;;4956355;28;20444;-83
2023/06/19 00:31:27;;;;;;;14.20;13.50;;;24.00;97.30;;;;;;4958560;28;20490;-84
2023/06/19 00:33:55;;;;;;;13.00;12.40;;;24.00;96.90;;;;;;4960567;28;20482;-84
2023/06/19 00:36:25;;;;;;;14.20;13.50;;;24.00;96.70;;;;;;4958866;28;20468;-84
2023/06/19 00:38:56;;;;;;;12.23;11.73;;;24.00;96.20;;;;;;4962013;28;20455;-83
2023/06/19 00:41:27;;;;;;;13.30;12.67;;;24.00;96.20;;;;;;4955044;28;20478;-84
2023/06/19 00:43:55;;;;;;;13.20;12.60;;;24.00;96.70;;;;;;4963183;28;20458;-84
2023/06/19 00:46:23;;;;;;;13.60;13.00;;;23.90;96.10;;;;;;4960268;28;20546;-83
2023/06/19 00:48:52;;;;;;;14.57;13.67;;;23.80;96.30;;;;;;4957778;28;20955;-83
2023/06/19 00:51:21;;;;;;;13.97;13.27;;;23.80;96.60;;;;;;4959284;28;20472;-82
2023/06/19 00:53:49;;;;;;;13.50;12.80;;;23.80;96.80;;;;;;4960407;28;20535;-84
2023/06/19 00:56:19;;;;;;;14.10;13.30;;;23.80;97.30;;;;;;4961849;28;20835;-81
2023/06/19 00:58:47;;;;;;;13.33;12.70;;;23.80;97.00;;;;;;4954644;28;20568;-82
2023/06/19 01:01:15;;;;;;;14.17;13.37;;;23.80;96.60;;;;;;4960915;28;20456;-82
2023/06/19 01:03:43;;;;;;;14.70;13.97;;;23.80;97.10;;;;;;4957528;28;20546;-82
2023/06/19 01:06:16;;;;;;;13.80;13.20;;;23.90;97.00;;;;;;4959499;28;20516;-82
2023/06/19 01:08:51;;;;;;;14.67;13.97;;;23.90;97.10;;;;;;4954963;28;20546;-81
2023/06/19 01:11:24;;;;;;;14.00;13.40;;;23.80;97.80;;;;;;4959229;28;20463;-82
2023/06/19 01:13:57;;;;;;;13.90;13.30;;;23.80;97.60;;;;;;4962406;28;20497;-82
2023/06/19 01:16:27;;;;;;;14.97;13.97;;;23.80;97.90;;;;;;4960260;28;20526;-83
2023/06/19 01:18:56;;;;;;;14.97;14.17;;;23.70;98.30;;;;;;4957882;28;20995;-83
2023/06/19 01:21:24;;;;;;;14.33;13.63;;;23.70;97.80;;;;;;4960287;28;20558;-82
2023/06/19 01:23:54;;;;;;;13.90;13.20;;;23.70;98.60;;;;;;4962211;28;20842;-81
2023/06/19 01:26:26;;;;;;;13.43;12.80;;;23.70;98.80;;;;;;4962094;28;20467;-82
2023/06/19 01:28:57;;;;;;;13.73;13.00;;;23.60;97.80;;;;;;4958810;28;20534;-82
2023/06/19 01:31:32;;;;;;;14.83;13.93;;;23.60;98.00;;;;;;4962938;28;20748;-82
2023/06/19 01:34:02;;;;;;;13.93;13.30;;;23.60;98.60;;;;;;4958279;28;20575;-83
2023/06/19 01:36:31;;;;;;;13.17;12.57;;;23.60;99.10;;;;;;4958489;28;20487;-80
2023/06/19 01:39:01;;;;;;;13.30;12.73;;;23.50;99.90;;;;;;4959957;28;20456;-81
2023/06/19 01:41:30;;;;;;;13.50;12.90;;;23.50;99.90;;;;;;4959752;28;20472;-79
2023/06/19 01:44:00;;;;;;;14.03;13.23;;;23.50;99.90;;;;;;4973190;28;20495;-80
2023/06/19 01:46:28;;;;;;;14.00;13.30;;;23.50;99.90;;;;;;4964188;28;20451;-82
2023/06/19 01:48:56;;;;;;;12.80;12.20;;;23.40;99.90;;;;;;4957511;28;20468;-84
2023/06/19 01:51:24;;;;;;;14.00;13.40;;;23.40;99.90;;;;;;4957650;28;20480;-81
2023/06/19 01:53:52;;;;;;;13.33;12.73;;;23.40;99.90;;;;;;4958564;28;20956;-85
2023/06/19 01:56:24;;;;;;;13.43;12.83;;;23.40;99.90;;;;;;4956399;28;20470;-83
2023/06/19 01:58:52;;;;;;;14.00;13.20;;;23.40;99.90;;;;;;4959650;28;20469;-83
2023/06/19 02:01:20;;;;;;;13.23;12.67;;;23.40;99.90;;;;;;4962641;28;20464;-83
2023/06/19 02:03:48;;;;;;;13.77;13.27;;;23.40;99.90;;;;;;4960922;28;20930;-82
2023/06/19 02:06:16;;;;;;;13.80;13.30;;;23.30;99.90;;;;;;4958395;28;20452;-82
2023/06/19 02:08:44;;;;;;;13.00;12.50;;;23.40;99.90;;;;;;4957276;28;20487;-81
2023/06/19 02:11:13;;;;;;;12.93;12.40;;;23.40;99.90;;;;;;4953775;28;20483;-82
2023/06/19 02:13:42;;;;;;;13.20;12.70;;;23.40;99.90;;;;;;4956171;28;20498;-81
2023/06/19 02:16:10;;;;;;;13.40;12.90;;;23.30;99.90;;;;;;4955355;28;20556;-82
2023/06/19 02:18:38;;;;;;;13.37;12.87;;;23.30;99.90;;;;;;4955376;28;20452;-82
2023/06/19 02:21:07;;;;;;;13.80;13.30;;;23.30;99.90;;;;;;4955663;28;20840;-80
2023/06/19 02:23:35;;;;;;;13.70;13.10;;;23.20;99.90;;;;;;4956725;28;20571;-81
2023/06/19 02:26:03;;;;;;;13.63;13.13;;;23.20;99.90;;;;;;4957248;28;20846;-80
2023/06/19 02:28:32;;;;;;;13.20;12.70;;;23.20;99.90;;;;;;4957845;28;20503;-80
2023/06/19 02:31:01;;;;;;;13.50;12.90;;;23.30;99.90;;;;;;4959980;28;20830;-79
2023/06/19 02:33:29;;;;;;;12.80;12.40;;;23.20;99.90;;;;;;4955978;28;20779;-82
2023/06/19 02:35:58;;;;;;;13.73;13.23;;;23.20;99.90;;;;;;4959113;28;20460;-81
2023/06/19 02:38:29;;;;;;;13.20;12.80;;;23.20;99.90;;;;;;4952936;28;20448;-80
2023/06/19 02:41:00;;;;;;;13.53;13.03;;;23.20;99.90;;;;;;4954590;28;20450;-81
2023/06/19 02:43:28;;;;;;;13.53;13.03;;;23.20;99.90;;;;;;4954020;28;20491;-81
2023/06/19 02:45:56;;;;;;;14.20;13.63;;;23.20;99.90;;;;;;4955017;28;20465;-80
2023/06/19 02:48:26;;;;;;;13.63;13.23;;;23.10;99.90;;;;;;4958447;28;20455;-79
2023/06/19 02:50:54;;;;;;;13.37;12.87;;;23.10;99.90;;;;;;4960659;28;20452;-81
2023/06/19 02:53:23;;;;;;;15.00;14.40;;;23.10;99.90;;;;;;4955613;28;20474;-81
2023/06/19 02:55:51;;;;;;;13.77;13.33;;;23.10;99.90;;;;;;4956458;28;20470;-81
2023/06/19 02:58:19;;;;;;;13.70;13.20;;;23.00;99.90;;;;;;4956649;28;20547;-82
2023/06/19 03:00:47;;;;;;;14.00;13.50;;;23.10;99.90;;;;;;4957116;28;20450;-82
2023/06/19 03:03:16;;;;;;;14.30;13.80;;;23.00;99.90;;;;;;4957017;28;20498;-78
2023/06/19 03:05:45;;;;;;;14.73;14.23;;;23.00;99.90;;;;;;4955739;28;20460;-79
2023/06/19 03:08:13;;;;;;;14.40;13.90;;;22.90;99.90;;;;;;4955826;28;20566;-82
2023/06/19 03:10:42;;;;;;;14.20;13.70;;;22.80;99.90;;;;;;4959208;28;20464;-82
2023/06/19 03:13:10;;;;;;;14.00;13.50;;;22.90;99.90;;;;;;4958204;28;20482;-82
2023/06/19 03:15:38;;;;;;;12.40;12.00;;;22.90;99.90;;;;;;4958851;28;20456;-82
2023/06/19 03:18:08;;;;;;;13.57;13.17;;;22.90;99.90;;;;;;4959706;28;20460;-82
2023/06/19 03:20:36;;;;;;;13.30;12.90;;;22.80;99.90;;;;;;4957730;28;20467;-82
2023/06/19 03:23:06;;;;;;;13.50;13.00;;;22.90;99.90;;;;;;4954510;28;20992;-80
2023/06/19 03:25:34;;;;;;;12.80;12.40;;;22.80;99.90;;;;;;4957706;28;20476;-82
2023/06/19 03:28:04;;;;;;;13.50;13.10;;;22.80;99.90;;;;;;4955759;28;20546;-81
2023/06/19 03:30:32;;;;;;;13.00;12.60;;;22.80;99.90;;;;;;4959853;28;20463;-78
2023/06/19 03:33:00;;;;;;;13.60;13.20;;;22.80;99.90;;;;;;4956816;28;20470;-82
2023/06/19 03:35:28;;;;;;;13.80;13.30;;;22.80;99.90;;;;;;4955880;28;20468;-82
2023/06/19 03:37:56;;;;;;;14.70;14.20;;;22.70;99.90;;;;;;4959418;28;20972;-81
2023/06/19 03:40:26;;;;;;;14.03;13.53;;;22.80;99.90;;;;;;4960705;28;20472;-82
2023/06/19 03:42:56;;;;;;;13.57;13.17;;;22.80;99.90;;;;;;4960872;28;21005;-83
2023/06/19 03:45:24;;;;;;;13.97;13.47;;;22.70;99.90;;;;;;4954864;28;20636;-82
2023/06/19 03:47:52;;;;;;;13.50;13.00;;;22.70;99.90;;;;;;4957487;28;20467;-81
2023/06/19 03:50:20;;;;;;;13.67;13.23;;;22.60;99.90;;;;;;4957521;28;20550;-80
2023/06/19 03:52:51;;;;;;;13.83;13.13;;;22.70;99.90;;;;;;4958129;28;20490;-81
2023/06/19 03:55:19;;;;;;;13.43;12.93;;;22.60;99.90;;;;;;4956764;28;20454;-81
2023/06/19 03:57:49;;;;;;;13.40;13.00;;;22.50;99.90;;;;;;4955877;28;20490;-78
2023/06/19 04:00:18;;;;;;;13.67;13.27;;;22.50;99.90;;;;;;4956065;28;20465;-80
2023/06/19 04:02:47;;;;;;;13.60;13.10;;;22.40;99.90;;;;;;4952763;28;20522;-81
2023/06/19 04:05:15;;;;;;;14.03;13.53;;;22.30;99.90;;;;;;4956800;28;21099;-82
2023/06/19 04:07:44;;;;;;;14.60;14.10;;;22.20;99.90;;;;;;4953901;28;20460;-80
2023/06/19 04:10:12;;;;;;;14.13;13.63;;;22.30;99.90;;;;;;4954685;28;20459;-83
2023/06/19 04:12:41;;;;;;;15.00;14.40;;;22.20;99.90;;;;;;4957649;28;21273;-82
2023/06/19 04:15:11;;;;;;;15.07;14.40;;;22.20;99.90;;;;;;4954214;28;20487;-79
2023/06/19 04:17:39;;;;;;;14.60;14.10;;;22.20;99.90;;;;;;4955562;28;20571;-80
2023/06/19 04:20:10;;;;;;;14.50;14.00;;;22.30;99.90;;;;;;4952749;28;20513;-79
2023/06/19 04:22:39;;;;;;;14.60;14.10;;;22.10;99.90;;;;;;4951057;28;22647;-80
2023/06/19 04:25:09;;;;;;;15.20;14.70;;;22.00;99.90;;;;;;4960220;28;21033;-79
2023/06/19 04:27:38;;;;;;;14.50;13.97;;;22.00;99.90;;;;;;4957613;28;20951;-80
2023/06/19 04:30:07;;;;;;;15.87;14.83;;;21.90;99.90;;;;;;4954037;28;20526;-79
2023/06/19 04:32:40;;;;;;;16.10;15.40;;;21.90;99.90;;;;;;4957161;28;20471;-79
2023/06/19 04:35:09;;;;;;;16.00;15.20;;;22.00;99.90;;;;;;4957196;28;20482;-78
2023/06/19 04:37:37;;;;;;;15.40;14.90;;;22.10;99.90;;;;;;4958309;28;20451;-78
2023/06/19 04:40:08;;;;;;;15.50;15.00;;;22.20;99.90;;;;;;4953184;28;20468;-77
2023/06/19 04:42:38;;;;;;;15.60;15.10;;;22.20;99.90;;;;;;4961094;28;20498;-78
2023/06/19 04:45:07;;;;;;;14.90;14.40;;;22.20;99.90;;;;;;4960281;28;20486;-77
2023/06/19 04:47:37;;;;;;;15.00;14.50;;;22.20;99.90;;;;;;4950078;28;20562;-78
2023/06/19 04:50:20;;;;;;;16.27;15.57;;;22.20;99.90;;;;;;4960148;28;21188;-78
2023/06/19 04:52:50;;;;;;;15.57;15.07;;;22.10;99.90;;;;;;4960873;28;20487;-78
2023/06/19 04:55:19;;;;;;;16.93;16.27;;;22.10;99.90;;;;;;4964695;28;20526;-76
2023/06/19 04:57:48;;;;;;;16.53;15.93;;;22.10;99.90;;;;;;4959613;28;20450;-76
2023/06/19 05:00:19;;;;;;;15.57;15.07;;;22.10;99.90;;;;;;4952408;28;20463;-76
2023/06/19 05:02:48;;;;;;;16.30;15.80;;;22.10;99.90;;;;;;4947717;28;20480;-77
2023/06/19 05:05:18;;;;;;;15.80;15.30;;;22.10;99.90;;;;;;4961677;28;21077;-78
2023/06/19 05:08:38;;;;;;;15.90;15.40;;;22.10;99.90;;;;;;4959252;28;20460;-84
2023/06/19 05:11:06;;;;;;;16.53;16.00;;;22.00;99.90;;;;;;4955591;28;20455;-81
2023/06/19 05:13:38;;;;;;;16.43;15.93;;;22.00;99.90;;;;;;4956918;28;20466;-79
2023/06/19 05:16:40;;;;;;;16.10;15.50;;;22.00;99.90;;;;;;4963587;28;20484;-82
2023/06/19 05:19:16;;;;;;;16.13;15.63;;;22.00;99.90;;;;;;4949743;28;20460;-82
2023/06/19 05:22:09;;;;;;;;;;;;;;;;;;;;;
2023/06/19 05:25:45;;;;;;;16.07;15.57;;;22.10;99.90;;;;;;4958065;28;20494;-84
2023/06/19 05:28:13;;;;;;;16.03;15.50;;;22.20;99.90;;;;;;4900604;29;20458;-81
2023/06/19 05:30:41;;;;;;;16.60;16.00;;;22.20;99.90;;;;;;4898806;29;20461;-81
2023/06/19 05:33:16;;;;;;;16.40;15.90;;;22.20;99.90;;;;;;4900751;29;20750;-80
2023/06/19 05:36:57;;;;;;;16.57;15.97;;;22.30;99.90;;;;;;4897365;29;20549;-82
2023/06/19 05:40:19;;;;;;;;;;;;;;;;;;;;;
2023/06/19 05:43:31;;;;;;;16.97;16.37;;;22.30;99.90;;;;;;4826388;29;20498;-80
2023/06/19 05:47:25;;;;;;;17.20;16.60;;;22.40;99.90;;;;;;4875728;29;21059;-81
2023/06/19 05:53:18;;;;;;;17.27;16.67;;;22.40;99.90;;;;;;4845470;29;20496;-82
2023/06/19 05:55:47;;;;;;;17.53;16.73;;;22.50;99.90;;;;;;4901898;29;20463;-80
2023/06/19 06:01:59;;;;;;;16.40;15.90;;;22.40;99.90;;;;;;4908169;29;20887;-80
2023/06/19 06:12:00;;;;;;;17.07;16.57;;;22.60;99.90;;;;;;4895917;23;21075;-80
2023/06/19 06:14:28;;;;;;;17.77;16.93;;;22.60;99.90;;;;;;4963984;28;20543;-80
2023/06/19 06:16:58;;;;;;;18.10;17.30;;;22.60;99.90;;;;;;4966426;28;20676;-81
2023/06/19 06:19:26;;;;;;;17.50;17.00;;;22.70;99.90;;;;;;4963453;28;20882;-81
2023/06/19 06:21:55;;;;;;;17.50;16.90;;;22.70;99.90;;;;;;4959999;28;20471;-81
2023/06/19 06:24:23;;;;;;;17.37;16.77;;;22.80;99.90;;;;;;4959482;28;20809;-80
2023/06/19 06:26:51;;;;;;;16.97;16.37;;;22.70;99.90;;;;;;4958309;28;21111;-82
2023/06/19 06:29:20;;;;;;;17.20;16.70;;;22.70;99.90;;;;;;4961374;28;20980;-79
2023/06/19 06:31:48;;;;;;;17.40;16.80;;;22.70;99.90;;;;;;4969385;28;20474;-80
2023/06/19 06:34:18;;;;;;;17.43;16.90;;;22.60;99.90;;;;;;4961653;28;20462;-80
2023/06/19 06:39:34;;;;;;;16.40;15.90;;;22.70;99.90;;;;;;4940880;28;20459;-81
2023/06/19 06:42:03;;;;;;;17.13;16.53;;;22.80;99.90;;;;;;4957930;28;20553;-80
2023/06/19 06:44:32;;;;;;;17.23;16.70;;;22.90;99.90;;;;;;4955680;28;20463;-81
2023/06/19 06:47:01;;;;;;;16.90;16.40;;;22.90;99.90;;;;;;4957648;28;20687;-79
2023/06/19 06:49:30;;;;;;;16.87;16.37;;;22.90;99.90;;;;;;4957290;28;20470;-81
2023/06/19 06:51:58;;;;;;;16.90;16.30;;;22.80;99.90;;;;;;4959755;28;20466;-81
2023/06/19 06:54:26;;;;;;;17.27;16.57;;;22.80;99.90;;;;;;4953719;28;20546;-80
2023/06/19 06:56:58;;;;;;;16.80;16.30;;;22.90;99.90;;;;;;4957946;28;20559;-81
2023/06/19 06:59:28;;;;;;;17.17;16.57;;;22.90;99.90;;;;;;4961474;28;20470;-81
2023/06/19 07:01:57;;;;;;;17.77;17.17;;;22.90;99.90;;;;;;4953772;28;20969;-79
2023/06/19 07:05:01;;;;;;;17.10;16.53;;;23.00;99.90;;;;;;4956242;28;20466;-80
2023/06/19 07:07:30;;;;;;;16.43;15.90;;;23.00;99.90;;;;;;4953184;28;20443;-79
2023/06/19 07:09:58;;;;;;;16.97;16.40;;;23.00;99.90;;;;;;4946950;28;20463;-80
2023/06/19 07:12:33;;;;;;;17.20;16.70;;;23.20;99.90;;;;;;4952357;28;20944;-80
2023/06/19 07:15:06;;;;;;;17.30;16.73;;;23.30;99.90;;;;;;4954637;28;20763;-79
2023/06/19 07:17:57;;;;;;;17.17;16.67;;;23.50;99.90;;;;;;4950119;28;20475;-78
2023/06/19 07:20:27;;;;;;;17.33;16.67;;;23.40;99.90;;;;;;4952096;28;20467;-79
2023/06/19 07:22:56;;;;;;;17.10;16.50;;;23.30;99.90;;;;;;4948398;28;20578;-81
2023/06/19 07:25:25;;;;;;;17.80;17.17;;;23.30;99.90;;;;;;4953589;28;20482;-80
2023/06/19 07:27:53;;;;;;;17.87;17.27;;;23.40;99.90;;;;;;4953126;28;21036;-78
2023/06/19 07:30:21;;;;;;;17.90;17.40;;;23.50;99.90;;;;;;4956124;28;20510;-80
2023/06/19 07:32:50;;;;;;;17.47;16.80;;;23.60;99.90;;;;;;4958370;28;20553;-81
2023/06/19 07:35:18;;;;;;;17.80;17.20;;;23.60;99.90;;;;;;4957681;28;20451;-78
2023/06/19 07:37:48;;;;;;;19.70;19.00;;;23.60;99.90;;;;;;4955423;28;20977;-81
2023/06/19 07:40:16;;;;;;;18.33;17.73;;;23.70;99.90;;;;;;4957567;28;20443;-79
2023/06/19 07:42:44;;;;;;;18.10;17.50;;;23.80;99.90;;;;;;4954895;28;20471;-82
2023/06/19 07:45:13;;;;;;;18.10;17.50;;;23.80;99.90;;;;;;4955614;28;20460;-78
2023/06/19 07:47:41;;;;;;;17.53;16.93;;;23.70;99.90;;;;;;4959058;28;20464;-80
2023/06/19 07:50:10;;;;;;;18.90;18.20;;;23.70;99.90;;;;;;4957552;28;20459;-80
2023/06/19 07:52:39;;;;;;;18.67;17.97;;;23.70;99.90;;;;;;4958515;28;20467;-81
2023/06/19 07:55:09;;;;;;;18.30;17.70;;;23.60;99.90;;;;;;4955822;28;20459;-79
2023/06/19 07:57:37;;;;;;;18.40;17.80;;;23.70;99.90;;;;;;4960402;28;20455;-79
2023/06/19 08:00:10;;;;;;;20.00;19.10;;;23.70;99.90;;;;;;4957401;28;20460;-81
2023/06/19 08:02:39;;;;;;;18.40;17.70;;;23.80;99.90;;;;;;4958078;28;20483;-79
2023/06/19 08:05:09;;;;;;;18.33;17.73;;;23.60;99.90;;;;;;4961592;28;20464;-81
2023/06/19 08:07:38;;;;;;;18.47;17.87;;;23.70;99.90;;;;;;4959876;28;20475;-80
2023/06/19 08:10:08;;;;;;;18.70;18.07;;;23.80;99.90;;;;;;4960171;28;20503;-80
2023/06/19 08:12:55;;;;;;;18.90;18.30;;;23.70;99.90;;;;;;4959511;28;20490;-82
2023/06/19 08:15:23;;;;;;;19.07;18.20;;;23.80;99.90;;;;;;4954382;28;21033;-79
2023/06/19 08:17:51;;;;;;;19.40;18.60;;;23.80;99.90;;;;;;4961059;28;20478;-78
2023/06/19 08:20:20;;;;;;;18.97;18.17;;;23.80;99.90;;;;;;4957735;28;20435;-79
2023/06/19 08:22:49;;;;;;;19.10;18.50;;;23.80;99.90;;;;;;4957241;28;20483;-78
2023/06/19 08:25:19;;;;;;;19.03;18.43;;;23.80;99.90;;;;;;4955861;28;20467;-79
2023/06/19 08:27:47;;;;;;;19.07;18.47;;;23.90;99.90;;;;;;4958278;28;20488;-80
2023/06/19 08:30:15;;;;;;;19.03;18.33;;;24.00;99.90;;;;;;4959863;28;20473;-79
2023/06/19 08:32:44;;;;;;;18.77;18.13;;;24.00;99.90;;;;;;4956110;28;21028;-79
2023/06/19 08:35:13;;;;;;;18.60;17.90;;;24.00;99.90;;;;;;4957846;28;20842;-79
2023/06/19 08:37:41;;;;;;;18.40;17.80;;;24.00;99.90;;;;;;4955578;28;20890;-79
2023/06/19 08:40:10;;;;;;;18.90;18.20;;;24.00;99.90;;;;;;4960130;28;20440;-79
2023/06/19 08:42:42;;;;;;;17.80;17.20;;;24.00;99.90;;;;;;4959030;28;20514;-79
2023/06/19 08:45:11;;;;;;;18.33;17.63;;;24.20;99.90;;;;;;4959768;28;20462;-77
2023/06/19 08:47:39;;;;;;;18.80;18.10;;;24.20;99.90;;;;;;4959814;28;20487;-80
2023/06/19 08:50:08;;;;;;;18.47;17.87;;;24.40;99.90;;;;;;4956546;28;20483;-81
2023/06/19 08:52:36;;;;;;;18.30;17.70;;;24.30;99.90;;;;;;4958564;28;20995;-79
2023/06/19 08:55:05;;;;;;;18.50;17.80;;;24.40;99.90;;;;;;4957870;28;20473;-80
2023/06/19 08:57:35;;;;;;;19.00;18.40;;;24.40;99.90;;;;;;4959912;28;20917;-80
2023/06/19 09:00:07;;;;;;;18.73;18.13;;;24.50;99.90;;;;;;4953037;28;21027;-79
2023/06/19 09:02:41;;;;;;;18.90;18.17;;;24.60;99.90;;;;;;4960781;28;21067;-81
2023/06/19 09:05:15;;;;;;;18.60;18.00;;;24.60;99.90;;;;;;4959420;28;20467;-81
2023/06/19 09:07:44;;;;;;;19.53;18.83;;;24.60;99.90;;;;;;4959248;28;20472;-82
2023/06/19 09:10:18;;;;;;;19.70;18.90;;;24.60;99.90;;;;;;4959039;28;20456;-81
2023/06/19 09:12:58;;;;;;;18.70;17.90;;;24.60;99.90;;;;;;4957994;28;20496;-82
2023/06/19 09:15:31;;;;;;;18.80;18.10;;;24.60;99.90;;;;;;4959465;28;20457;-81
2023/06/19 09:18:07;;;;;;;19.27;18.47;;;24.60;99.90;;;;;;4958132;28;20451;-80
2023/06/19 09:20:38;;;;;;;18.20;17.60;;;24.60;99.90;;;;;;4958358;28;20514;-81
2023/06/19 09:23:07;;;;;;;18.50;17.90;;;24.50;99.90;;;;;;4959188;28;20475;-78
2023/06/19 09:25:45;;;;;;;18.10;17.50;;;24.50;99.90;;;;;;4961500;28;20467;-81
2023/06/19 09:28:19;;;;;;;17.77;17.27;;;24.50;99.90;;;;;;4961809;28;20480;-80
2023/06/19 09:30:56;;;;;;;19.37;18.67;;;24.50;99.90;;;;;;4958297;28;20444;-80
2023/06/19 09:33:27;;;;;;;18.57;17.97;;;24.50;99.90;;;;;;4960856;28;20593;-80
2023/06/19 09:35:57;;;;;;;18.70;18.10;;;24.50;99.90;;;;;;4957155;28;20509;-81
2023/06/19 09:38:26;;;;;;;18.60;18.00;;;24.60;99.90;;;;;;4960940;28;20554;-81
2023/06/19 09:40:56;;;;;;;18.23;17.53;;;24.60;99.90;;;;;;4957289;28;20463;-82
2023/06/19 09:43:25;;;;;;;18.57;17.97;;;24.70;99.90;;;;;;4960836;28;20486;-81
2023/06/19 09:45:56;;;;;;;18.70;18.13;;;24.80;99.90;;;;;;4956077;28;20536;-81
2023/06/19 09:48:29;;;;;;;18.77;18.17;;;24.80;99.90;;;;;;4959056;28;21026;-80
2023/06/19 09:51:03;;;;;;;18.50;17.90;;;24.90;99.90;;;;;;4959606;28;20467;-80
2023/06/19 09:53:32;;;;;;;18.40;17.80;;;24.90;99.90;;;;;;4957839;28;20566;-81
2023/06/19 09:56:01;;;;;;;18.83;18.13;;;24.90;99.90;;;;;;4961150;28;20460;-78
2023/06/19 09:58:30;;;;;;;18.20;17.60;;;25.00;99.90;;;;;;4956673;28;20502;-81
2023/06/19 10:01:01;;;;;;;17.90;17.40;;;25.00;99.90;;;;;;4961286;28;20449;-81
2023/06/19 10:03:33;;;;;;;17.70;17.10;;;25.10;99.90;;;;;;4961507;28;20484;-81
2023/06/19 10:06:02;;;;;;;17.50;17.00;;;25.10;99.90;;;;;;4959132;28;20513;-78
2023/06/19 10:08:32;;;;;;;17.50;17.00;;;25.10;99.90;;;;;;4954468;28;21031;-80
2023/06/19 10:11:00;;;;;;;17.40;16.90;;;25.20;99.90;;;;;;4957433;28;20475;-78
2023/06/19 10:13:36;;;;;;;18.07;17.40;;;25.30;99.90;;;;;;4957567;28;20501;-81
2023/06/19 10:16:06;;;;;;;17.57;17.07;;;25.30;99.90;;;;;;4955381;28;20461;-78
2023/06/19 10:18:46;;;;;;;17.20;16.70;;;25.50;99.90;;;;;;4956165;28;20463;-80
2023/06/19 10:21:17;;;;;;;17.07;16.30;;;25.60;99.90;;;;;;4955033;28;20455;-81
2023/06/19 10:23:54;;;;;;;18.00;17.30;;;25.50;99.90;;;;;;4961055;28;20503;-81
2023/06/19 10:26:31;;;;;;;17.70;17.10;;;25.40;99.90;;;;;;4957949;28;20551;-79
2023/06/19 10:28:59;;;;;;;17.80;17.30;;;25.40;99.90;;;;;;4956266;28;21007;-81
2023/06/19 10:31:29;;;;;;;17.53;17.03;;;25.40;99.90;;;;;;4960974;28;20443;-81
2023/06/19 10:33:57;;;;;;;17.70;17.10;;;25.40;99.90;;;;;;4958905;28;20473;-81
2023/06/19 10:36:26;;;;;;;17.70;17.00;;;25.50;99.90;;;;;;4958246;28;20891;-82
2023/06/19 10:38:55;;;;;;;17.20;16.63;;;25.50;99.90;;;;;;4958593;28;20466;-81
2023/06/19 10:41:25;;;;;;;17.90;17.30;;;25.50;99.90;;;;;;4958000;28;20461;-81
2023/06/19 10:43:57;;;;;;;17.20;16.60;;;25.40;99.90;;;;;;4957301;28;20464;-80
2023/06/19 10:46:31;;;;;;;17.97;17.40;;;25.40;99.90;;;;;;4962464;28;20464;-80
2023/06/19 10:49:01;;;;;;;17.63;17.13;;;25.40;99.90;;;;;;4956251;28;20483;-79
2023/06/19 10:51:29;;;;;;;17.30;16.60;;;25.40;99.90;;;;;;4943998;28;20459;-81
2023/06/19 10:53:58;;;;;;;16.83;16.13;;;25.50;99.90;;;;;;4958406;28;20459;-80
2023/06/19 10:56:27;;;;;;;16.57;16.17;;;25.50;99.90;;;;;;4959565;28;20829;-81
2023/06/19 10:59:00;;;;;;;16.70;16.20;;;25.60;99.90;;;;;;4955801;28;20497;-81
2023/06/19 11:01:40;;;;;;;16.90;16.40;;;25.70;99.90;;;;;;4954490;28;20466;-80
2023/06/19 11:04:09;;;;;;;17.60;17.00;;;25.80;99.90;;;;;;4954320;28;20540;-81
2023/06/19 11:06:38;;;;;;;18.00;17.40;;;26.00;99.90;;;;;;4955349;28;20558;-79
2023/06/19 11:09:07;;;;;;;18.00;17.30;;;26.00;99.90;;;;;;4954679;28;20598;-82
2023/06/19 11:11:37;;;;;;;18.43;17.73;;;26.10;99.90;;;;;;4951153;28;20571;-81
2023/06/19 11:14:06;;;;;;;18.03;17.33;;;26.00;99.90;;;;;;4956590;28;20462;-82
2023/06/19 11:16:34;;;;;;;17.40;16.80;;;26.00;99.90;;;;;;4950685;28;20444;-80
2023/06/19 11:19:04;;;;;;;18.00;17.40;;;26.10;99.90;;;;;;4953046;28;20826;-81
2023/06/19 11:21:34;;;;;;;17.93;17.33;;;26.20;99.90;;;;;;4955029;28;20459;-81
2023/06/19 11:24:03;;;;;;;18.50;17.83;;;26.10;99.90;;;;;;4956380;28;20514;-81
2023/06/19 11:26:31;;;;;;;17.53;16.93;;;26.00;99.90;;;;;;4952917;28;20539;-81
2023/06/19 11:28:59;;;;;;;18.40;17.70;;;26.00;99.90;;;;;;4951327;28;20902;-82
2023/06/19 11:31:28;;;;;;;17.23;16.73;;;25.90;99.90;;;;;;4954282;28;20463;-81
2023/06/19 11:34:01;;;;;;;17.93;17.33;;;25.80;99.90;;;;;;4951477;28;20464;-80
2023/06/19 11:36:31;;;;;;;17.73;16.93;;;25.80;99.90;;;;;;4960910;28;20498;-79
2023/06/19 11:38:59;;;;;;;18.23;17.63;;;25.80;99.90;;;;;;4960714;28;20452;-81
2023/06/19 11:41:28;;;;;;;18.10;17.23;;;25.80;99.90;;;;;;4959828;28;20463;-81
2023/06/19 11:44:00;;;;;;;19.30;18.70;;;25.80;99.90;;;;;;4961290;28;21521;-82
2023/06/19 11:46:32;;;;;;;19.10;18.40;;;25.80;99.90;;;;;;4963489;28;20483;-82
2023/06/19 11:49:12;;;;;;;19.47;18.80;;;25.80;99.90;;;;;;4956054;28;20550;-81
2023/06/19 11:51:42;;;;;;;19.77;18.97;;;25.80;99.90;;;;;;4962916;28;20484;-81
2023/06/19 11:54:14;;;;;;;19.93;19.13;;;25.80;99.90;;;;;;4956718;28;20455;-81
2023/06/19 11:56:43;;;;;;;19.63;18.93;;;25.90;99.90;;;;;;4957745;28;20851;-81
2023/06/19 11:59:11;;;;;;;20.23;19.27;;;26.00;99.90;;;;;;4958937;28;20568;-82
2023/06/19 12:01:41;;;;;;;19.93;19.23;;;26.20;99.90;;;;;;4957309;28;20557;-80
2023/06/19 12:04:09;;;;;;;20.30;19.50;;;26.20;99.90;;;;;;4962478;28;20479;-81
2023/06/19 12:06:40;;;;;;;19.97;19.27;;;26.20;99.90;;;;;;4956701;28;20456;-81
2023/06/19 12:09:11;;;;;;;19.50;18.80;;;26.30;99.90;;;;;;4957037;28;20855;-80
2023/06/19 12:11:39;;;;;;;20.23;19.50;;;26.20;99.90;;;;;;4960040;28;20476;-81
2023/06/19 12:14:08;;;;;;;19.77;18.80;;;26.20;99.90;;;;;;4954591;28;20495;-81
2023/06/19 12:16:36;;;;;;;20.20;19.47;;;26.20;99.90;;;;;;4956869;28;20464;-81
2023/06/19 12:19:05;;;;;;;20.30;19.50;;;26.20;99.90;;;;;;4961779;28;20451;-81
2023/06/19 12:21:33;;;;;;;19.87;18.97;;;26.20;99.90;;;;;;4960448;28;20474;-81
2023/06/19 12:24:09;;;;;;;19.10;18.50;;;26.40;99.90;;;;;;4960619;28;21020;-81
2023/06/19 12:26:37;;;;;;;19.43;18.63;;;26.40;99.90;;;;;;4962653;28;20533;-80
2023/06/19 12:29:06;;;;;;;19.07;18.37;;;26.40;99.90;;;;;;4964923;28;20489;-81
2023/06/19 12:31:35;;;;;;;18.70;18.10;;;26.50;99.90;;;;;;4960225;28;21014;-80
2023/06/19 12:34:05;;;;;;;19.30;18.67;;;26.50;99.90;;;;;;4963037;28;21045;-80
2023/06/19 12:36:54;;;;;;;19.07;18.33;;;26.50;99.90;;;;;;4962654;28;20451;-82
2023/06/19 12:39:24;;;;;;;19.03;18.40;;;26.40;99.90;;;;;;4959057;28;20447;-78
2023/06/19 12:41:53;;;;;;;19.30;18.60;;;26.40;99.90;;;;;;4962758;28;20471;-81
2023/06/19 12:44:23;;;;;;;18.77;18.17;;;26.50;99.90;;;;;;4963153;28;20447;-79
2023/06/19 12:46:52;;;;;;;20.20;19.10;;;26.50;99.90;;;;;;4960158;28;20536;-80
2023/06/19 12:49:20;;;;;;;19.30;18.60;;;26.50;99.90;;;;;;4962470;28;20478;-81
2023/06/19 12:51:51;;;;;;;18.23;17.63;;;26.50;99.90;;;;;;4961227;28;21085;-81
2023/06/19 12:54:19;;;;;;;19.10;18.50;;;26.50;99.90;;;;;;4965721;28;20945;-81
2023/06/19 12:56:49;;;;;;;19.13;18.53;;;26.50;99.90;;;;;;4963421;28;20467;-81
2023/06/19 12:59:19;;;;;;;19.23;18.50;;;26.40;99.90;;;;;;4962574;28;20452;-79
2023/06/19 13:01:47;;;;;;;19.20;18.40;;;26.40;99.90;;;;;;4961671;28;21038;-82
2023/06/19 13:04:15;;;;;;;18.90;18.20;;;26.50;99.90;;;;;;4958933;28;20456;-81
2023/06/19 13:06:44;;;;;;;18.67;17.97;;;26.50;99.90;;;;;;4961402;28;20439;-81